Time;durP1;ratioP1;P1;durP2;ratioP2;P2;SDS_P1;SDS_P2;PMS_P1;PMS_P2;Temp;Humidity;BMP_temperature;BMP_pressure;BME280_temperature;BME280_humidity;BME280_pressure;Samples;Min_cycle;Max_cycle;Signal;HPM_P1;HPM_P2
2021/07/07 00:01:29;;;;;;;1.73;0.77;;;;;;;18.55;67.12;100593.00;5036105;28;20227;-78
2021/07/07 00:03:56;;;;;;;2.37;0.80;;;;;;;18.53;67.13;100589.59;5033247;28;20212;-77
2021/07/07 00:06:22;;;;;;;1.70;0.80;;;;;;;18.53;67.27;100588.75;5033847;28;20716;-77
2021/07/07 00:08:49;;;;;;;1.67;0.67;;;;;;;18.51;67.05;100585.34;5033484;28;20205;-77
2021/07/07 00:11:18;;;;;;;2.90;1.20;;;;;;;18.50;67.18;100589.03;5033179;28;20273;-77
2021/07/07 00:13:44;;;;;;;2.07;0.77;;;;;;;18.48;67.19;100602.66;5032695;28;20203;-77
2021/07/07 00:16:11;;;;;;;2.70;0.83;;;;;;;18.49;67.66;100611.59;5035210;28;20210;-77
2021/07/07 00:18:37;;;;;;;7.43;1.07;;;;;;;18.45;67.83;100605.66;5024080;28;20707;-77
2021/07/07 00:21:04;;;;;;;2.40;0.80;;;;;;;18.42;68.27;100605.13;5033073;28;20232;-77
2021/07/07 00:23:31;;;;;;;1.77;0.80;;;;;;;18.41;68.55;100616.91;5033144;28;20671;-77
2021/07/07 00:25:58;;;;;;;2.80;1.00;;;;;;;18.38;68.95;100610.81;5032433;28;20206;-77
2021/07/07 00:28:27;;;;;;;3.33;0.90;;;;;;;18.36;69.21;100611.97;5032685;28;20207;-78
2021/07/07 00:30:54;;;;;;;3.30;0.90;;;;;;;18.33;69.33;100617.63;5032195;28;20227;-78
2021/07/07 00:33:21;;;;;;;2.63;1.10;;;;;;;18.30;69.35;100628.72;5032605;28;20673;-78
2021/07/07 00:35:48;;;;;;;2.37;1.20;;;;;;;18.27;69.42;100629.03;5032174;28;20211;-78
2021/07/07 00:38:16;;;;;;;5.43;1.33;;;;;;;18.24;69.69;100626.63;5032400;28;20587;-77
2021/07/07 00:40:43;;;;;;;3.97;1.10;;;;;;;18.20;69.75;100627.91;5032442;28;20251;-77
2021/07/07 00:43:10;;;;;;;2.93;1.00;;;;;;;18.17;69.77;100629.03;5032544;28;20573;-77
2021/07/07 00:45:38;;;;;;;5.27;1.00;;;;;;;18.16;70.01;100627.34;5032044;28;20213;-77
2021/07/07 00:48:05;;;;;;;3.77;1.27;;;;;;;18.15;70.05;100630.19;5032103;28;20577;-77
2021/07/07 00:50:31;;;;;;;2.07;0.90;;;;;;;18.14;70.17;100618.56;5032361;28;20238;-77
2021/07/07 00:52:58;;;;;;;3.33;1.00;;;;;;;18.13;70.16;100629.47;5031917;28;20210;-78
2021/07/07 00:55:25;;;;;;;3.03;0.97;;;;;;;18.11;70.28;100632.31;5028694;28;20205;-78
2021/07/07 00:57:53;;;;;;;2.63;0.90;;;;;;;18.10;70.27;100632.47;5034339;28;20567;-78
2021/07/07 01:00:21;;;;;;;2.20;1.17;;;;;;;18.09;70.51;100638.88;5031519;28;20225;-77
2021/07/07 01:02:52;;;;;;;3.30;1.10;;;;;;;18.08;70.47;100631.78;5031480;28;20209;-77
2021/07/07 01:05:19;;;;;;;3.43;1.10;;;;;;;18.08;70.61;100642.56;5027732;28;20199;-77
2021/07/07 01:07:46;;;;;;;3.73;1.17;;;;;;;18.07;70.54;100654.34;5031496;28;20211;-77
2021/07/07 01:10:14;;;;;;;2.00;0.87;;;;;;;18.07;70.80;100630.09;5032462;28;20658;-78
2021/07/07 01:12:42;;;;;;;2.27;0.93;;;;;;;18.06;70.76;100623.84;5032341;28;20747;-79
2021/07/07 01:15:10;;;;;;;2.40;1.00;;;;;;;18.06;70.79;100623.00;5032222;28;20259;-79
2021/07/07 01:17:38;;;;;;;1.97;0.97;;;;;;;18.04;70.96;100623.13;5032261;28;20250;-77
2021/07/07 01:20:09;;;;;;;1.10;1.00;;;;;;;18.03;70.93;100626.81;5032012;28;20231;-78
2021/07/07 01:22:37;;;;;;;2.60;1.30;;;;;;;18.02;71.01;100631.34;5032184;28;20596;-78
2021/07/07 01:25:06;;;;;;;2.77;0.90;;;;;;;18.00;71.17;100622.56;5032338;28;20573;-79
2021/07/07 01:27:33;;;;;;;5.00;1.20;;;;;;;17.98;71.24;100624.56;5031728;28;20208;-78
2021/07/07 01:29:59;;;;;;;3.37;1.13;;;;;;;17.98;71.43;100618.31;5032101;28;20194;-78
2021/07/07 01:32:26;;;;;;;0.97;0.80;;;;;;;17.95;71.52;100613.22;5032504;28;20247;-78
2021/07/07 01:34:52;;;;;;;4.43;1.17;;;;;;;17.92;71.54;100627.81;5032222;28;20209;-78
2021/07/07 01:37:22;;;;;;;2.33;1.10;;;;;;;17.90;71.70;100621.75;5031796;28;20291;-77
2021/07/07 01:39:50;;;;;;;2.63;1.13;;;;;;;17.87;71.73;100615.78;5031756;28;20241;-77
2021/07/07 01:42:17;;;;;;;2.47;1.00;;;;;;;17.84;71.76;100611.53;5031541;28;20226;-77
2021/07/07 01:44:43;;;;;;;3.03;1.00;;;;;;;17.81;71.89;100611.81;5050798;28;20206;-77
2021/07/07 01:47:10;;;;;;;2.17;1.10;;;;;;;17.79;71.97;100603.03;5052461;28;20210;-77
2021/07/07 01:49:37;;;;;;;9.57;1.40;;;;;;;17.75;71.95;100604.31;5052292;28;20277;-77
2021/07/07 01:52:04;;;;;;;3.63;1.40;;;;;;;17.69;71.80;100603.06;5052092;28;20225;-77
2021/07/07 01:54:30;;;;;;;5.60;1.10;;;;;;;17.61;71.88;100607.41;5051786;28;20216;-77
2021/07/07 01:56:58;;;;;;;2.53;1.10;;;;;;;17.52;72.16;100590.28;5032407;28;20214;-77
2021/07/07 01:59:25;;;;;;;2.93;1.20;;;;;;;17.45;72.16;100602.63;5034671;28;20214;-78
2021/07/07 02:01:52;;;;;;;2.83;1.37;;;;;;;17.41;72.46;100603.03;5035357;28;20228;-78
2021/07/07 02:04:21;;;;;;;3.97;1.10;;;;;;;17.39;72.86;100602.31;5034432;28;20205;-78
2021/07/07 02:06:48;;;;;;;4.93;1.40;;;;;;;17.38;73.09;100588.00;5034100;28;20208;-78
2021/07/07 02:09:14;;;;;;;5.90;1.43;;;;;;;17.38;73.10;100579.94;5034363;28;20201;-79
2021/07/07 02:11:41;;;;;;;3.83;1.20;;;;;;;17.38;73.35;100584.50;5035522;28;20238;-78
2021/07/07 02:14:09;;;;;;;4.00;1.17;;;;;;;17.38;73.40;100589.88;5035439;28;20304;-79
2021/07/07 02:16:35;;;;;;;3.17;1.30;;;;;;;17.38;73.52;100600.66;5035710;28;20229;-78
2021/07/07 02:19:02;;;;;;;3.60;1.23;;;;;;;17.37;73.65;100582.81;5038936;28;20236;-79
2021/07/07 02:21:28;;;;;;;3.07;1.20;;;;;;;17.35;73.63;100602.63;5038918;28;20338;-79
2021/07/07 02:23:56;;;;;;;2.20;1.17;;;;;;;17.35;73.70;100599.94;5038913;28;20204;-78
2021/07/07 02:26:22;;;;;;;1.23;1.10;;;;;;;17.35;73.73;100591.88;5039240;28;20205;-79
2021/07/07 02:28:49;;;;;;;1.93;1.03;;;;;;;17.35;73.62;100581.09;5038700;28;20208;-78
2021/07/07 02:31:17;;;;;;;2.20;1.10;;;;;;;17.35;73.54;100585.63;5038046;28;20236;-78
2021/07/07 02:33:43;;;;;;;2.97;1.20;;;;;;;17.32;73.68;100585.91;5038635;28;20629;-78
2021/07/07 02:36:10;;;;;;;2.00;1.07;;;;;;;17.31;73.77;100587.75;5038216;28;20205;-78
2021/07/07 02:38:36;;;;;;;2.90;1.27;;;;;;;17.30;73.98;100590.59;5038799;28;20798;-78
2021/07/07 02:41:04;;;;;;;2.97;1.20;;;;;;;17.29;74.05;100603.19;5038600;28;20229;-77
2021/07/07 02:43:30;;;;;;;2.70;1.00;;;;;;;17.28;74.08;100608.72;5038432;28;20205;-78
2021/07/07 02:45:57;;;;;;;3.53;1.07;;;;;;;17.26;74.08;100602.63;5038705;28;20891;-78
2021/07/07 02:48:25;;;;;;;2.23;1.13;;;;;;;17.23;74.11;100597.50;5038307;28;20209;-78
2021/07/07 02:50:52;;;;;;;3.43;1.17;;;;;;;17.21;74.18;100610.25;5038135;28;20255;-78
2021/07/07 02:53:19;;;;;;;7.63;1.17;;;;;;;17.19;74.16;100626.56;5037847;28;20201;-78
2021/07/07 02:55:46;;;;;;;1.43;1.00;;;;;;;17.18;74.28;100616.78;5038061;28;20819;-78
2021/07/07 02:58:14;;;;;;;3.20;1.00;;;;;;;17.16;74.17;100593.69;5038278;28;20220;-78
2021/07/07 03:00:48;;;;;;;2.70;1.20;;;;;;;17.11;74.20;100595.94;5036805;28;20239;-77
2021/07/07 03:03:16;;;;;;;3.27;1.07;;;;;;;17.05;74.29;100613.50;5036795;28;20248;-78
2021/07/07 03:05:46;;;;;;;2.07;1.13;;;;;;;17.01;74.51;100622.88;5037406;28;20303;-79
2021/07/07 03:08:14;;;;;;;3.47;1.53;;;;;;;16.99;74.67;100624.84;5037371;28;20198;-78
2021/07/07 03:10:42;;;;;;;2.73;1.00;;;;;;;16.94;74.27;100636.00;5036687;28;20232;-78
2021/07/07 03:13:10;;;;;;;2.37;1.10;;;;;;;16.88;74.24;100623.09;5037797;28;20209;-78
2021/07/07 03:15:37;;;;;;;1.17;1.00;;;;;;;16.83;74.37;100616.44;5036896;28;20305;-78
2021/07/07 03:18:05;;;;;;;3.30;1.00;;;;;;;16.77;74.46;100612.47;5036936;28;20228;-78
2021/07/07 03:20:32;;;;;;;3.17;0.97;;;;;;;16.77;74.72;100598.16;5037401;28;20314;-78
2021/07/07 03:23:00;;;;;;;4.03;1.20;;;;;;;16.72;74.78;100603.94;5037395;28;20221;-79
2021/07/07 03:25:28;;;;;;;1.87;1.17;;;;;;;16.71;74.89;100606.78;5037095;28;20576;-78
2021/07/07 03:27:55;;;;;;;3.80;1.20;;;;;;;16.70;75.08;100607.75;5035126;28;20214;-77
2021/07/07 03:30:25;;;;;;;1.67;1.03;;;;;;;16.69;75.03;100619.50;5034349;28;20211;-77
2021/07/07 03:32:51;;;;;;;4.43;1.40;;;;;;;16.67;75.17;100625.88;5034840;28;20214;-77
2021/07/07 03:35:18;;;;;;;4.03;1.20;;;;;;;16.67;75.37;100639.31;5034692;28;20766;-77
2021/07/07 03:37:45;;;;;;;3.43;1.17;;;;;;;16.68;75.46;100640.16;5034401;28;20203;-77
2021/07/07 03:40:14;;;;;;;3.47;1.17;;;;;;;16.69;75.46;100649.09;5034991;28;20231;-77
2021/07/07 03:42:41;;;;;;;6.47;1.20;;;;;;;16.67;75.27;100651.91;5034937;28;20223;-77
2021/07/07 03:45:09;;;;;;;2.10;1.30;;;;;;;16.65;75.26;100651.22;5034685;28;20572;-77
2021/07/07 03:47:36;;;;;;;2.87;1.07;;;;;;;16.61;75.29;100658.66;5034311;28;20211;-78
2021/07/07 03:50:04;;;;;;;8.20;1.63;;;;;;;16.58;75.16;100658.09;5033724;28;20213;-77
2021/07/07 03:52:30;;;;;;;3.73;1.60;;;;;;;16.52;75.20;100659.47;5033953;28;20238;-78
2021/07/07 03:54:57;;;;;;;8.27;1.57;;;;;;;16.46;75.32;100665.41;5033634;28;20204;-78
2021/07/07 03:57:25;;;;;;;3.87;1.37;;;;;;;16.42;75.40;100674.72;5034181;28;20218;-78
2021/07/07 03:59:51;;;;;;;2.00;1.40;;;;;;;16.37;75.82;100671.56;5034448;28;20234;-78
2021/07/07 04:02:18;;;;;;;4.23;1.60;;;;;;;16.33;75.90;100670.97;5034710;28;20227;-78
2021/07/07 04:04:44;;;;;;;4.27;1.80;;;;;;;16.29;75.88;100669.56;5034041;28;20290;-78
2021/07/07 04:07:12;;;;;;;2.80;1.00;;;;;;;16.26;76.13;100674.34;5034766;28;20215;-77
2021/07/07 04:09:38;;;;;;;4.03;1.27;;;;;;;16.24;76.55;100685.22;5034081;28;20686;-78
2021/07/07 04:12:05;;;;;;;2.27;1.60;;;;;;;16.26;76.56;100685.09;5034021;28;20230;-77
2021/07/07 04:14:33;;;;;;;4.10;1.50;;;;;;;16.29;76.86;100690.22;5034181;28;20704;-78
2021/07/07 04:16:59;;;;;;;5.40;1.27;;;;;;;16.30;76.83;100689.22;5034625;28;20211;-77
2021/07/07 04:19:27;;;;;;;1.70;1.17;;;;;;;16.31;76.97;100683.69;5033314;28;20231;-78
2021/07/07 04:21:55;;;;;;;1.73;1.20;;;;;;;16.32;76.90;100679.16;5033541;28;20226;-77
2021/07/07 04:24:23;;;;;;;4.40;1.40;;;;;;;16.34;77.13;100687.94;5033625;28;20207;-78
2021/07/07 04:26:50;;;;;;;3.70;1.40;;;;;;;16.33;77.07;100684.41;5034433;28;20213;-78
2021/07/07 04:29:17;;;;;;;2.67;0.90;;;;;;;16.35;76.94;100697.72;5035468;28;20215;-78
2021/07/07 04:31:45;;;;;;;3.10;1.00;;;;;;;16.36;77.28;100704.81;5035275;28;20228;-78
2021/07/07 04:34:12;;;;;;;6.23;1.40;;;;;;;16.38;77.19;100712.72;5035464;28;20214;-78
2021/07/07 04:36:39;;;;;;;2.07;1.17;;;;;;;16.38;77.23;100708.22;5035963;28;20579;-78
2021/07/07 04:39:07;;;;;;;5.63;1.30;;;;;;;16.38;77.33;100705.53;5036511;28;20272;-78
2021/07/07 04:41:34;;;;;;;2.27;1.23;;;;;;;16.38;77.80;100700.16;5035377;28;20323;-78
2021/07/07 04:44:01;;;;;;;3.07;1.40;;;;;;;16.38;77.41;100707.34;5036740;28;20299;-80
2021/07/07 04:46:28;;;;;;;3.10;1.30;;;;;;;16.36;77.58;100707.50;5037931;28;20202;-80
2021/07/07 04:48:55;;;;;;;4.47;1.60;;;;;;;16.38;77.59;100705.53;5034912;28;20203;-80
2021/07/07 04:51:22;;;;;;;4.47;1.40;;;;;;;16.39;77.68;100703.69;5028582;28;20717;-79
2021/07/07 04:53:48;;;;;;;4.37;1.50;;;;;;;16.41;77.77;100709.78;5031519;28;20207;-79
2021/07/07 04:56:15;;;;;;;4.20;1.13;;;;;;;16.43;78.06;100708.66;5031796;28;20321;-79
2021/07/07 04:58:42;;;;;;;2.30;1.20;;;;;;;16.44;78.19;100715.75;5030342;28;20291;-80
2021/07/07 05:01:09;;;;;;;2.53;1.13;;;;;;;16.46;78.05;100711.09;5033193;28;20632;-79
2021/07/07 05:03:36;;;;;;;4.03;1.60;;;;;;;16.48;78.15;100714.47;5032734;28;20207;-79
2021/07/07 05:06:04;;;;;;;1.40;1.10;;;;;;;16.51;78.20;100722.28;5031846;28;20204;-79
2021/07/07 05:08:31;;;;;;;6.87;1.60;;;;;;;16.53;78.16;100719.47;5029002;28;20208;-79
2021/07/07 05:10:57;;;;;;;1.50;1.20;;;;;;;16.55;78.10;100715.66;5034901;28;20229;-79
2021/07/07 05:13:25;;;;;;;4.20;1.43;;;;;;;16.59;78.19;100718.94;5033466;28;20214;-79
2021/07/07 05:15:52;;;;;;;3.33;0.93;;;;;;;16.61;78.09;100716.97;5036578;28;20208;-79
2021/07/07 05:18:19;;;;;;;1.87;1.20;;;;;;;16.62;78.04;100724.91;5034313;28;20199;-79
2021/07/07 05:20:47;;;;;;;6.43;1.23;;;;;;;16.65;78.12;100716.59;5034005;28;20242;-79
2021/07/07 05:23:15;;;;;;;3.20;1.33;;;;;;;16.67;78.06;100728.06;5033972;28;20206;-79
2021/07/07 05:25:42;;;;;;;6.10;1.50;;;;;;;16.70;78.13;100732.31;5035868;28;20213;-79
2021/07/07 05:28:09;;;;;;;3.20;1.20;;;;;;;16.72;78.43;100724.97;5030910;28;20206;-80
2021/07/07 05:30:36;;;;;;;3.77;1.50;;;;;;;16.74;78.47;100735.59;5032743;28;20210;-79
2021/07/07 05:33:04;;;;;;;1.97;1.30;;;;;;;16.77;78.31;100736.19;5031289;28;20200;-78
2021/07/07 05:35:31;;;;;;;3.37;1.30;;;;;;;16.79;78.39;100739.59;5031929;28;20212;-81
2021/07/07 05:37:58;;;;;;;6.50;1.60;;;;;;;16.81;78.52;100744.84;5031598;28;20207;-82
2021/07/07 05:40:26;;;;;;;4.27;1.40;;;;;;;16.85;78.46;100748.94;5030995;28;20689;-81
2021/07/07 05:42:53;;;;;;;4.47;1.30;;;;;;;16.89;78.69;100745.00;5029036;28;20204;-80
2021/07/07 05:45:22;;;;;;;3.27;1.23;;;;;;;16.93;78.53;100739.22;5021269;28;20206;-80
2021/07/07 05:47:49;;;;;;;4.93;1.40;;;;;;;16.96;78.55;100744.34;5032970;28;20199;-81
2021/07/07 05:50:16;;;;;;;2.83;1.20;;;;;;;17.00;78.52;100739.53;5027726;28;20805;-80
2021/07/07 05:52:43;;;;;;;1.53;0.90;;;;;;;17.03;78.64;100741.94;5032729;28;20215;-79
2021/07/07 05:55:10;;;;;;;1.83;1.30;;;;;;;17.06;78.60;100744.34;5036712;28;20207;-80
2021/07/07 05:57:38;;;;;;;3.27;1.43;;;;;;;17.10;78.44;100748.50;5040083;28;20218;-79
2021/07/07 06:00:11;;;;;;;2.10;1.13;;;;;;;17.15;78.32;100759.69;5033069;28;20235;-79
2021/07/07 06:02:39;;;;;;;3.93;1.60;;;;;;;17.18;78.16;100767.50;5028916;28;20308;-81
2021/07/07 06:05:07;;;;;;;1.67;1.03;;;;;;;17.22;77.91;100768.91;5030975;28;20210;-79
2021/07/07 06:07:34;;;;;;;2.93;1.40;;;;;;;17.26;77.88;100766.81;5038447;28;20208;-80
2021/07/07 06:10:01;;;;;;;2.40;1.23;;;;;;;17.30;77.79;100763.72;5037750;28;20200;-79
2021/07/07 06:12:27;;;;;;;1.80;1.30;;;;;;;17.38;77.92;100765.69;5034182;28;20239;-80
2021/07/07 06:14:55;;;;;;;4.47;1.60;;;;;;;17.47;77.91;100766.72;5030140;28;20207;-79
2021/07/07 06:17:22;;;;;;;7.93;2.03;;;;;;;17.57;78.14;100762.19;5034020;28;20213;-78
2021/07/07 06:19:48;;;;;;;3.30;1.43;;;;;;;17.67;77.92;100769.34;5031957;28;20213;-80
2021/07/07 06:22:15;;;;;;;2.60;1.30;;;;;;;17.76;77.73;100781.09;5031885;28;20220;-80
2021/07/07 06:24:41;;;;;;;3.57;1.50;;;;;;;17.82;77.46;100785.09;5031814;28;20201;-81
2021/07/07 06:27:08;;;;;;;2.07;1.30;;;;;;;17.85;77.13;100788.38;5032386;28;20205;-82
2021/07/07 06:29:34;;;;;;;2.40;1.30;;;;;;;17.88;76.93;100798.88;5030336;28;20315;-82
2021/07/07 06:32:03;;;;;;;2.57;1.10;;;;;;;17.91;76.41;100786.97;5036150;28;20225;-80
2021/07/07 06:34:29;;;;;;;3.90;1.27;;;;;;;17.94;76.11;100783.97;5033055;28;20205;-79
2021/07/07 06:36:56;;;;;;;2.63;1.20;;;;;;;17.97;76.06;100783.69;5031417;28;20208;-80
2021/07/07 06:39:22;;;;;;;2.37;1.10;;;;;;;18.02;75.74;100782.28;5031321;28;20215;-82
2021/07/07 06:41:49;;;;;;;3.90;1.10;;;;;;;18.08;75.56;100786.25;5034142;28;21736;-81
2021/07/07 06:44:15;;;;;;;3.23;1.40;;;;;;;18.21;75.73;100784.13;5036414;28;20296;-81
2021/07/07 06:46:42;;;;;;;1.60;0.97;;;;;;;18.42;75.70;100799.28;5037709;28;20212;-81
2021/07/07 06:49:10;;;;;;;4.33;1.20;;;;;;;18.63;75.18;100795.41;5035493;28;20220;-81
2021/07/07 06:51:36;;;;;;;3.20;1.00;;;;;;;18.83;74.58;100789.97;5028250;28;20748;-79
2021/07/07 06:54:03;;;;;;;3.37;1.20;;;;;;;18.97;73.60;100787.69;5037345;28;20624;-79
2021/07/07 06:56:29;;;;;;;3.77;1.47;;;;;;;19.11;72.84;100782.78;5025203;28;20682;-79
2021/07/07 06:58:56;;;;;;;1.50;1.10;;;;;;;19.22;72.04;100778.03;5035155;28;20199;-80
2021/07/07 07:01:23;;;;;;;3.43;1.10;;;;;;;19.33;71.27;100785.09;5036179;28;20225;-80
2021/07/07 07:03:49;;;;;;;3.83;1.30;;;;;;;19.46;71.04;100795.53;5027463;28;20289;-80
2021/07/07 07:06:17;;;;;;;1.30;0.90;;;;;;;19.58;70.18;100810.56;5032188;28;20221;-80
2021/07/07 07:08:43;;;;;;;1.67;0.93;;;;;;;19.68;69.77;100814.94;5028906;28;20214;-80
2021/07/07 07:11:12;;;;;;;5.70;1.73;;;;;;;19.74;69.35;100819.72;5036640;28;20558;-81
2021/07/07 07:13:39;;;;;;;4.10;1.33;;;;;;;19.82;69.04;100816.25;5032756;28;20205;-81
2021/07/07 07:16:06;;;;;;;2.70;1.20;;;;;;;19.88;68.52;100815.66;5032384;28;20684;-81
2021/07/07 07:18:32;;;;;;;2.97;1.00;;;;;;;19.93;68.08;100816.03;5031996;28;20207;-79
2021/07/07 07:20:59;;;;;;;4.30;1.43;;;;;;;19.99;67.68;100819.97;5031905;28;20234;-79
2021/07/07 07:23:27;;;;;;;6.33;1.53;;;;;;;20.03;67.59;100824.94;5027662;28;20205;-81
2021/07/07 07:25:53;;;;;;;3.67;1.30;;;;;;;20.08;67.34;100816.34;5035732;28;20200;-80
2021/07/07 07:28:20;;;;;;;3.23;1.40;;;;;;;20.14;67.06;100814.88;5027382;28;20207;-79
2021/07/07 07:30:46;;;;;;;3.00;1.30;;;;;;;20.17;66.67;100823.53;5033976;28;20220;-80
2021/07/07 07:33:13;;;;;;;4.07;1.80;;;;;;;20.22;66.57;100826.63;5033803;28;20242;-81
2021/07/07 07:35:42;;;;;;;3.50;1.50;;;;;;;20.27;66.65;100827.00;5034310;28;20205;-79
2021/07/07 07:38:12;;;;;;;4.83;1.20;;;;;;;20.40;67.03;100823.94;5025226;28;20229;-80
2021/07/07 07:40:41;;;;;;;2.60;1.10;;;;;;;20.48;65.82;100824.00;5024859;28;20225;-79
2021/07/07 07:43:09;;;;;;;2.67;1.10;;;;;;;20.55;65.63;100821.53;5034592;28;20756;-80
2021/07/07 07:45:36;;;;;;;2.43;1.17;;;;;;;20.63;65.48;100825.13;5030792;28;20213;-79
2021/07/07 07:48:04;;;;;;;3.93;0.93;;;;;;;20.74;65.17;100830.31;5027623;28;20210;-79
2021/07/07 07:50:31;;;;;;;3.67;1.23;;;;;;;20.90;64.94;100831.41;5038183;28;20216;-79
2021/07/07 07:52:57;;;;;;;4.50;1.10;;;;;;;21.02;64.74;100835.53;5034574;28;20220;-79
2021/07/07 07:55:24;;;;;;;1.70;1.10;;;;;;;21.13;64.26;100830.72;5030446;28;20211;-80
2021/07/07 07:57:52;;;;;;;8.10;1.50;;;;;;;21.26;64.33;100827.59;5025720;28;20202;-81
2021/07/07 08:00:21;;;;;;;5.53;1.30;;;;;;;21.41;63.57;100833.25;5029459;28;20204;-81
2021/07/07 08:02:48;;;;;;;2.30;1.10;;;;;;;21.51;62.74;100835.81;5029455;28;20209;-80
2021/07/07 08:05:16;;;;;;;4.00;1.37;;;;;;;21.61;62.79;100841.97;5025165;28;20240;-82
2021/07/07 08:07:43;;;;;;;3.10;1.42;;;;;;;21.71;62.35;100837.25;5032453;28;20220;-79
2021/07/07 08:10:12;;;;;;;4.10;1.42;;;;;;;21.81;62.15;100837.97;5031092;28;20230;-79
2021/07/07 08:12:39;;;;;;;3.08;1.20;;;;;;;21.91;61.94;100843.25;5032358;28;20225;-80
2021/07/07 08:15:09;;;;;;;4.03;1.30;;;;;;;21.99;61.58;100840.56;5021944;28;20201;-79
2021/07/07 08:17:35;;;;;;;7.38;1.40;;;;;;;22.06;61.34;100842.47;5033721;28;20210;-81
2021/07/07 08:20:03;;;;;;;4.25;1.40;;;;;;;22.14;61.40;100845.19;5029847;28;20217;-81
2021/07/07 08:22:30;;;;;;;2.78;0.93;;;;;;;22.25;61.01;100852.16;5028193;28;20284;-80
2021/07/07 08:24:57;;;;;;;3.90;1.33;;;;;;;22.32;60.52;100855.06;5030654;28;20202;-81
2021/07/07 08:27:23;;;;;;;4.55;1.50;;;;;;;22.34;59.89;100853.03;5028934;28;20207;-80
2021/07/07 08:29:50;;;;;;;4.72;1.50;;;;;;;22.36;59.72;100851.00;5033595;28;20210;-79
2021/07/07 08:32:17;;;;;;;4.43;1.65;;;;;;;22.39;59.37;100853.38;5021444;28;20228;-80
2021/07/07 08:34:44;;;;;;;5.53;1.63;;;;;;;22.41;59.32;100863.03;5033642;28;20581;-79
2021/07/07 08:37:12;;;;;;;12.77;2.67;;;;;;;22.45;59.73;100858.09;5040326;28;20594;-81
2021/07/07 08:39:39;;;;;;;4.25;1.20;;;;;;;22.52;59.68;100864.56;5027358;28;20631;-79
2021/07/07 08:42:06;;;;;;;21.80;3.83;;;;;;;22.53;59.37;100863.56;5035406;28;20732;-80
2021/07/07 08:44:33;;;;;;;3.70;1.10;;;;;;;22.56;59.49;100868.66;5025545;28;20208;-80
2021/07/07 08:46:59;;;;;;;4.13;1.00;;;;;;;22.63;59.71;100866.09;5034668;28;20236;-81
2021/07/07 08:49:27;;;;;;;3.65;1.40;;;;;;;22.72;59.63;100865.09;5033121;28;20212;-81
2021/07/07 08:51:54;;;;;;;22.52;4.03;;;;;;;22.82;59.48;100871.19;5027437;28;20221;-81
2021/07/07 08:54:20;;;;;;;3.30;1.20;;;;;;;22.95;58.76;100873.38;5031077;28;20202;-81
2021/07/07 08:56:48;;;;;;;4.90;1.42;;;;;;;22.98;58.59;100867.63;5026965;28;20630;-81
2021/07/07 08:59:18;;;;;;;2.45;1.13;;;;;;;23.02;57.70;100871.69;5026719;28;20293;-81
2021/07/07 09:02:00;;;;;;;4.15;1.55;;;;;;;23.12;58.06;100877.78;5034065;28;20277;-81
2021/07/07 09:04:30;;;;;;;3.58;1.40;;;;;;;23.27;57.48;100870.63;5030517;28;20207;-81
2021/07/07 09:06:58;;;;;;;5.93;1.30;;;;;;;23.41;56.42;100869.91;5025339;28;20207;-81
2021/07/07 09:09:38;;;;;;;3.88;1.20;;;;;;;23.56;55.42;100871.91;5029037;28;20652;-81
2021/07/07 09:12:20;;;;;;;3.55;1.38;;;;;;;23.71;54.44;100879.16;5033378;28;20222;-81
2021/07/07 09:14:50;;;;;;;2.90;1.30;;;;;;;23.84;54.21;100873.13;5032990;28;20202;-81
2021/07/07 09:17:18;;;;;;;4.18;1.45;;;;;;;24.01;54.19;100872.03;5029192;28;20697;-79
2021/07/07 09:19:47;;;;;;;4.35;1.30;;;;;;;24.12;52.73;100873.50;5032500;28;20580;-80
2021/07/07 09:22:16;;;;;;;2.63;1.27;;;;;;;24.21;52.53;100878.69;5027986;28;20231;-80
2021/07/07 09:24:44;;;;;;;3.85;1.50;;;;;;;24.35;52.41;100881.72;5027930;28;20238;-81
2021/07/07 09:27:12;;;;;;;2.80;1.25;;;;;;;24.46;52.58;100875.84;5026237;28;20203;-80
2021/07/07 09:29:41;;;;;;;4.25;1.20;;;;;;;24.61;52.28;100882.19;5025280;28;20234;-79
2021/07/07 09:32:19;;;;;;;2.92;1.40;;;;;;;24.74;51.38;100879.69;5033134;28;20244;-80
2021/07/07 09:34:50;;;;;;;3.72;1.15;;;;;;;24.83;49.86;100875.88;5033342;28;20205;-81
2021/07/07 09:37:25;;;;;;;6.18;1.58;;;;;;;24.92;49.96;100866.59;5026892;28;20295;-81
2021/07/07 09:39:53;;;;;;;4.10;1.60;;;;;;;25.10;49.48;100866.28;5024496;28;20280;-80
2021/07/07 09:42:24;;;;;;;7.00;1.20;;;;;;;25.20;48.43;100863.28;5027871;28;20596;-81
2021/07/07 09:44:51;;;;;;;3.92;1.20;;;;;;;25.28;47.71;100857.72;5024177;28;20216;-79
2021/07/07 09:47:19;;;;;;;2.88;1.17;;;;;;;25.40;48.26;100858.13;5028539;28;20201;-79
2021/07/07 09:49:48;;;;;;;4.13;1.08;;;;;;;25.49;47.18;100856.97;5026371;28;20206;-80
2021/07/07 09:52:15;;;;;;;6.85;1.20;;;;;;;25.45;45.20;100853.78;5029756;28;20249;-80
2021/07/07 09:54:43;;;;;;;5.57;1.27;;;;;;;25.51;45.84;100861.22;5032444;28;20210;-80
2021/07/07 09:57:10;;;;;;;4.07;1.83;;;;;;;25.60;46.41;100856.50;5033078;28;20209;-79
2021/07/07 09:59:36;;;;;;;3.47;1.35;;;;;;;25.75;46.64;100864.69;5028011;28;20201;-81
2021/07/07 10:02:04;;;;;;;4.97;1.33;;;;;;;25.92;46.54;100863.44;5027613;28;20225;-82
2021/07/07 10:04:33;;;;;;;3.88;1.23;;;;;;;25.94;45.14;100866.84;5026265;28;20570;-81
2021/07/07 10:07:01;;;;;;;4.18;1.30;;;;;;;25.95;44.69;100863.06;5029804;28;20723;-80
2021/07/07 10:09:28;;;;;;;2.70;1.48;;;;;;;26.00;44.50;100867.94;5031281;28;20293;-80
2021/07/07 10:11:56;;;;;;;4.28;1.25;;;;;;;26.10;43.71;100863.88;5028374;28;20314;-80
2021/07/07 10:14:23;;;;;;;4.60;1.35;;;;;;;26.06;43.14;100862.56;5028229;28;20359;-79
2021/07/07 10:16:50;;;;;;;1.20;0.93;;;;;;;26.06;43.22;100873.47;5026437;28;20368;-81
2021/07/07 10:19:17;;;;;;;5.35;1.13;;;;;;;26.17;42.51;100867.50;5029191;28;20748;-80
2021/07/07 10:21:45;;;;;;;5.10;1.30;;;;;;;26.25;42.14;100866.53;5028661;28;20277;-81
2021/07/07 10:24:14;;;;;;;4.35;1.90;;;;;;;26.41;42.51;100865.47;5033492;28;20198;-81
2021/07/07 10:26:42;;;;;;;3.35;1.10;;;;;;;26.55;41.80;100867.28;5031306;28;20220;-81
2021/07/07 10:29:08;;;;;;;4.18;1.50;;;;;;;26.67;41.76;100863.00;5027410;28;20641;-81
2021/07/07 10:31:48;;;;;;;2.22;1.10;;;;;;;26.82;41.35;100851.97;5032729;28;20226;-81
2021/07/07 10:34:16;;;;;;;4.07;1.25;;;;;;;26.92;41.96;100853.31;5029428;28;20206;-81
2021/07/07 10:36:43;;;;;;;3.90;1.42;;;;;;;27.00;39.57;100854.25;5026797;28;20209;-81
2021/07/07 10:39:14;;;;;;;5.63;1.63;;;;;;;27.03;39.83;100856.59;5030166;28;20202;-81
2021/07/07 10:41:52;;;;;;;2.65;1.20;;;;;;;27.14;39.39;100862.34;5035198;28;20232;-80
2021/07/07 10:44:51;;;;;;;2.47;1.30;;;;;;;27.13;37.50;100860.66;5032547;28;20583;-80
2021/07/07 10:47:18;;;;;;;3.72;1.30;;;;;;;27.15;36.70;100865.91;5035482;28;20248;-81
2021/07/07 10:49:47;;;;;;;3.10;1.30;;;;;;;27.17;36.07;100856.47;5035595;28;20714;-81
2021/07/07 10:52:16;;;;;;;3.42;1.13;;;;;;;27.23;36.67;100863.84;5032031;28;20222;-81
2021/07/07 10:54:55;;;;;;;4.07;1.20;;;;;;;27.36;36.98;100870.47;5034756;28;20210;-81
2021/07/07 10:57:24;;;;;;;2.47;1.15;;;;;;;27.47;36.63;100861.69;5033697;28;20201;-79
2021/07/07 10:59:54;;;;;;;4.53;1.20;;;;;;;27.45;37.06;100861.91;5029023;28;20565;-81
2021/07/07 11:02:23;;;;;;;3.92;1.48;;;;;;;27.47;37.60;100867.16;5034383;28;20226;-81
2021/07/07 11:04:52;;;;;;;2.90;1.27;;;;;;;27.47;37.09;100868.00;5033434;28;20226;-81
2021/07/07 11:07:29;;;;;;;4.00;1.33;;;;;;;27.39;36.58;100864.63;5033686;28;20233;-80
2021/07/07 11:10:00;;;;;;;3.50;1.10;;;;;;;27.31;37.53;100865.59;5030459;28;20206;-82
2021/07/07 11:12:49;;;;;;;3.55;1.20;;;;;;;27.33;37.31;100866.25;5032569;28;20218;-81
2021/07/07 11:15:18;;;;;;;4.90;1.30;;;;;;;27.37;37.13;100863.97;5035792;28;20240;-81
2021/07/07 11:17:46;;;;;;;2.92;1.15;;;;;;;27.40;37.25;100867.16;5028346;28;20234;-82
2021/07/07 11:20:15;;;;;;;2.20;0.95;;;;;;;27.40;36.74;100869.03;5035206;28;20208;-81
2021/07/07 11:22:44;;;;;;;3.28;1.30;;;;;;;27.33;37.02;100866.25;5034812;28;20226;-79
2021/07/07 11:25:14;;;;;;;4.00;1.00;;;;;;;27.43;37.46;100877.66;5030262;28;20232;-81
2021/07/07 11:27:41;;;;;;;3.50;1.00;;;;;;;27.53;36.82;100871.84;5028895;28;20203;-80